AirNav   Everest Fuels
 
 1296 users online  

16FD Skinners Wholesale Nursery Airport
Crescent City, Florida, USA

GOING TO CRESCENT CITY?


FAA INFORMATION EFFECTIVE 16 JULY 2020

Location

FAA Identifier: 16FD
Lat/Long: 29-24-17.9070N 081-29-45.2600W
29-24.298450N 081-29.754333W
29.4049742,-81.4959056
(estimated)
Elevation: 20 ft. / 6 m (estimated)
Variation: 03W (1985)
From city: 3 miles SE of CRESCENT CITY, FL
Time zone: UTC -4 (UTC -5 during Standard Time)
Zip code: 32112

Airport Operations

Airport use: Private use. Permission required prior to landing
Activation date: 05/1991
Control tower: no
ARTCC: JACKSONVILLE CENTER
FSS: GAINESVILLE FLIGHT SERVICE STATION
Attendance: UNATNDD
Segmented circle: no

Airport Communications

WX AWOS-3 at FIN (15 nm E): 128.325 (386-437-7334)
WX AWOS-3 at 28J (18 nm NW): 119.925 (386-312-2212)

Nearby radio navigation aids

VOR radial/distance  VOR name  Freq  Var
OMNr287/20.9ORMOND BEACH VORTAC112.6000E
SGJr201/34.2ST AUGUSTINE VOR/DME109.4006W

 
NDB name  Hdg/Dist  Freq  Var  ID
REYNOLDS173/34.833807WRYD .-. -.-- -..

Airport Services

Runway Information

Runway 9/27

Dimensions: 3400 x 200 ft. / 1036 x 61 m
Surface: turf
RUNWAY 9  RUNWAY 27
Traffic pattern: leftleft
Obstructions: treesnone

Airport Ownership and Management from official FAA records

Ownership: Privately-owned
Owner: THE BRYANT SKINNER CO.
6800 SOUTHPOINT PKWY (400)
JACKSONVILLE, FL 32216
Phone 904-737-0000
Manager: LARRY CREWS
RTE 2 CLIFTON RD
CRESCENT CITY, FL 32112
Phone 904-698-1459

Additional Remarks

FOR CD CTC DAYTONA APCH AT 386-226-3939.

Instrument Procedures

There are no published instrument procedures at 16FD.

Some nearby airports with instrument procedures:

KFIN - Flagler Executive Airport (15 nm E)
28J - Palatka Municipal Airport - Lt. Kay Larkin Field (18 nm NW)
KOMN - Ormond Beach Municipal Airport (21 nm E)
KDED - DeLand Municipal Airport-Sidney H Taylor Field (23 nm SE)
KDAB - Daytona Beach International Airport (27 nm SE)
 
Loc | Ops | Rwys | IFR | FBO | Links
Com | Nav | Svcs | Stats | Notes
Area around 16FD (Skinners Wholesale Nursery Airport)
 
Road maps at: MapQuest Bing Google
 
Aerial photo
No photo
 
Sectional chart

 
Airport distance calculator
Flying to Skinners Wholesale Nursery Airport? Find the distance to fly.

From to 16FD

Sunrise and sunset
Times for 06-Aug-2020
 Local
(UTC-4)
 Zulu
(UTC)
Morning civil twilight06:2510:25
Sunrise06:5110:51
Sunset20:1300:13
Evening civil twilight20:3800:38

Current date and time
Zulu (UTC)  06-Aug-2020 14:05:17
Local (UTC-4)  06-Aug-2020 10:05:17
 
METAR
KFIN 
15nm E 
061350Z 21005KT 10SM CLR 27/23 A3005
K28J 
18nm NW 
061355Z AUTO 00000KT 10SM CLR 27/22 A3005 RMK AO2
KOMN 
21nm E 
061350Z 20008KT 10SM CLR A3005
KDED 
23nm SE 
061355Z AUTO 19007KT 10SM CLR 29/23 A3006 RMK AO2 T02900232
KDAB 
26nm SE 
061353Z 20007KT 10SM SCT170 28/24 A3005 RMK AO2 SLP175 T02830244
TAF
KDAB 
26nm SE 
061122Z 0612/0712 19003KT P6SM FEW100 BKN250 FM061400 18004KT P6SM SCT025 SCT150 FM061700 11007KT P6SM VCTS SCT035CB SCT050 TEMPO 0619/0621 3SM TSRA BKN030CB FM070100 18003KT P6SM FEW060 SCT090 BKN150
NOTAMs
Click for the latest NOTAMs
NOTAMs are issued by the DoD/FAA and will open in a separate window not controlled by AirNav.

 

 
 

Would you like to see your business listed on this page?

 If your business provides an interesting product or service to pilots, flight crews, aircraft, or users of the Skinners Wholesale Nursery Airport, you should consider listing it here.  To start the listing process, click on the button below
 
Add a business
 

Other Pages about Skinners Wholesale Nursery Airport

Update a link
 
Copyright © AirNav, LLC. All rights reserved. Privacy Policy  Contact